sensor_id;sensor_type;location;lat;lon;timestamp;temperature;humidity
45807;DHT22;31507;51.494;7.518;2023-05-15T00:02:17;11.10;99.90
45807;DHT22;31507;51.494;7.518;2023-05-15T00:04:42;11.00;99.90
45807;DHT22;31507;51.494;7.518;2023-05-15T00:07:08;11.00;99.90
45807;DHT22;31507;51.494;7.518;2023-05-15T00:09:34;11.00;99.90
45807;DHT22;31507;51.494;7.518;2023-05-15T00:11:59;11.00;99.90
45807;DHT22;31507;51.494;7.518;2023-05-15T00:14:25;11.00;99.90
45807;DHT22;31507;51.494;7.518;2023-05-15T00:16:50;11.00;99.90
45807;DHT22;31507;51.494;7.518;2023-05-15T00:19:16;10.80;99.90
45807;DHT22;31507;51.494;7.518;2023-05-15T00:21:42;10.80;99.90
45807;DHT22;31507;51.494;7.518;2023-05-15T00:24:07;10.80;99.90
45807;DHT22;31507;51.494;7.518;2023-05-15T00:26:33;10.90;99.90
45807;DHT22;31507;51.494;7.518;2023-05-15T00:28:58;10.90;99.90
45807;DHT22;31507;51.494;7.518;2023-05-15T00:31:24;10.90;99.90
45807;DHT22;31507;51.494;7.518;2023-05-15T00:33:50;10.90;99.90
45807;DHT22;31507;51.494;7.518;2023-05-15T00:36:15;10.90;99.90
45807;DHT22;31507;51.494;7.518;2023-05-15T00:38:42;10.90;99.90
45807;DHT22;31507;51.494;7.518;2023-05-15T00:41:09;10.80;99.90
45807;DHT22;31507;51.494;7.518;2023-05-15T00:43:35;10.80;99.90
45807;DHT22;31507;51.494;7.518;2023-05-15T00:46:03;10.70;99.90
45807;DHT22;31507;51.494;7.518;2023-05-15T00:48:32;10.70;99.90
45807;DHT22;31507;51.494;7.518;2023-05-15T00:50:58;10.60;99.90
45807;DHT22;31507;51.494;7.518;2023-05-15T00:53:27;10.60;99.90
45807;DHT22;31507;51.494;7.518;2023-05-15T00:55:57;10.50;99.90
45807;DHT22;31507;51.494;7.518;2023-05-15T00:58:26;10.50;99.90
45807;DHT22;31507;51.494;7.518;2023-05-15T01:00:53;10.40;99.90
45807;DHT22;31507;51.494;7.518;2023-05-15T01:03:18;10.40;99.90
45807;DHT22;31507;51.494;7.518;2023-05-15T01:05:44;10.30;99.90
45807;DHT22;31507;51.494;7.518;2023-05-15T01:08:25;10.30;99.90
45807;DHT22;31507;51.494;7.518;2023-05-15T01:10:51;10.30;99.90
45807;DHT22;31507;51.494;7.518;2023-05-15T01:13:19;10.20;99.90
45807;DHT22;31507;51.494;7.518;2023-05-15T01:15:46;10.20;99.90
45807;DHT22;31507;51.494;7.518;2023-05-15T01:18:11;10.20;99.90
45807;DHT22;31507;51.494;7.518;2023-05-15T01:26:12;10.10;99.90
45807;DHT22;31507;51.494;7.518;2023-05-15T01:28:47;10.00;99.90
45807;DHT22;31507;51.494;7.518;2023-05-15T01:31:15;10.00;99.90
45807;DHT22;31507;51.494;7.518;2023-05-15T01:33:45;9.90;99.90
45807;DHT22;31507;51.494;7.518;2023-05-15T01:36:18;10.00;99.90
45807;DHT22;31507;51.494;7.518;2023-05-15T01:41:28;9.90;99.90
45807;DHT22;31507;51.494;7.518;2023-05-15T01:46:30;9.90;99.90
45807;DHT22;31507;51.494;7.518;2023-05-15T01:49:00;9.90;99.90
45807;DHT22;31507;51.494;7.518;2023-05-15T01:51:26;9.90;99.90
45807;DHT22;31507;51.494;7.518;2023-05-15T01:53:52;9.90;99.90
45807;DHT22;31507;51.494;7.518;2023-05-15T01:56:20;9.90;99.90
45807;DHT22;31507;51.494;7.518;2023-05-15T01:58:47;9.90;99.90
45807;DHT22;31507;51.494;7.518;2023-05-15T02:01:15;9.90;99.90
45807;DHT22;31507;51.494;7.518;2023-05-15T02:03:42;9.90;99.90
45807;DHT22;31507;51.494;7.518;2023-05-15T02:06:09;9.90;99.90
45807;DHT22;31507;51.494;7.518;2023-05-15T02:08:36;9.90;99.90
45807;DHT22;31507;51.494;7.518;2023-05-15T02:11:02;9.90;99.90
45807;DHT22;31507;51.494;7.518;2023-05-15T02:13:29;9.90;99.90
45807;DHT22;31507;51.494;7.518;2023-05-15T02:15:56;9.90;99.90
45807;DHT22;31507;51.494;7.518;2023-05-15T02:18:22;9.90;99.90
45807;DHT22;31507;51.494;7.518;2023-05-15T02:20:48;9.80;99.90
45807;DHT22;31507;51.494;7.518;2023-05-15T02:23:13;9.80;99.90
45807;DHT22;31507;51.494;7.518;2023-05-15T02:25:49;9.70;99.90
45807;DHT22;31507;51.494;7.518;2023-05-15T02:28:30;9.70;99.90
45807;DHT22;31507;51.494;7.518;2023-05-15T02:31:02;9.60;99.90
45807;DHT22;31507;51.494;7.518;2023-05-15T02:36:19;9.50;99.90
45807;DHT22;31507;51.494;7.518;2023-05-15T02:38:51;9.50;99.90
45807;DHT22;31507;51.494;7.518;2023-05-15T02:41:17;9.50;99.90
45807;DHT22;31507;51.494;7.518;2023-05-15T02:43:44;9.40;99.90
45807;DHT22;31507;51.494;7.518;2023-05-15T02:46:12;9.40;99.90
45807;DHT22;31507;51.494;7.518;2023-05-15T02:48:40;9.40;99.90
45807;DHT22;31507;51.494;7.518;2023-05-15T02:51:07;9.30;99.90
45807;DHT22;31507;51.494;7.518;2023-05-15T02:53:40;9.30;99.90
45807;DHT22;31507;51.494;7.518;2023-05-15T02:56:07;9.20;99.90
45807;DHT22;31507;51.494;7.518;2023-05-15T02:58:33;9.30;99.90
45807;DHT22;31507;51.494;7.518;2023-05-15T03:00:59;9.20;99.90
45807;DHT22;31507;51.494;7.518;2023-05-15T03:03:25;9.20;99.90
45807;DHT22;31507;51.494;7.518;2023-05-15T03:05:50;9.20;99.90
45807;DHT22;31507;51.494;7.518;2023-05-15T03:08:18;9.20;99.90
45807;DHT22;31507;51.494;7.518;2023-05-15T03:10:44;9.30;99.90
45807;DHT22;31507;51.494;7.518;2023-05-15T03:13:09;9.30;99.90
45807;DHT22;31507;51.494;7.518;2023-05-15T03:15:35;9.30;99.90
45807;DHT22;31507;51.494;7.518;2023-05-15T03:18:01;9.30;99.90
45807;DHT22;31507;51.494;7.518;2023-05-15T03:20:27;9.30;99.90
45807;DHT22;31507;51.494;7.518;2023-05-15T03:22:52;9.30;99.90
45807;DHT22;31507;51.494;7.518;2023-05-15T03:25:18;9.30;99.90
45807;DHT22;31507;51.494;7.518;2023-05-15T03:27:43;9.30;99.90
45807;DHT22;31507;51.494;7.518;2023-05-15T03:30:09;9.30;99.90
45807;DHT22;31507;51.494;7.518;2023-05-15T03:32:35;9.30;99.90
45807;DHT22;31507;51.494;7.518;2023-05-15T03:35:01;9.30;99.90
45807;DHT22;31507;51.494;7.518;2023-05-15T03:37:26;9.30;99.90
45807;DHT22;31507;51.494;7.518;2023-05-15T03:39:52;9.40;99.90
45807;DHT22;31507;51.494;7.518;2023-05-15T03:42:18;9.40;99.90
45807;DHT22;31507;51.494;7.518;2023-05-15T03:44:48;9.40;99.90
45807;DHT22;31507;51.494;7.518;2023-05-15T03:47:14;9.40;99.90
45807;DHT22;31507;51.494;7.518;2023-05-15T03:49:40;9.50;99.90
45807;DHT22;31507;51.494;7.518;2023-05-15T03:52:06;9.60;99.90
45807;DHT22;31507;51.494;7.518;2023-05-15T03:54:32;9.70;99.90
45807;DHT22;31507;51.494;7.518;2023-05-15T03:56:58;9.90;99.90
45807;DHT22;31507;51.494;7.518;2023-05-15T03:59:23;10.00;99.90
45807;DHT22;31507;51.494;7.518;2023-05-15T04:01:49;10.10;99.90
45807;DHT22;31507;51.494;7.518;2023-05-15T04:04:15;10.30;99.90
45807;DHT22;31507;51.494;7.518;2023-05-15T04:06:41;10.40;99.90
45807;DHT22;31507;51.494;7.518;2023-05-15T04:09:07;10.50;99.90
45807;DHT22;31507;51.494;7.518;2023-05-15T04:11:33;10.60;99.90
45807;DHT22;31507;51.494;7.518;2023-05-15T04:13:59;10.70;99.90
45807;DHT22;31507;51.494;7.518;2023-05-15T04:16:25;10.80;99.90
45807;DHT22;31507;51.494;7.518;2023-05-15T04:18:50;10.80;99.90
45807;DHT22;31507;51.494;7.518;2023-05-15T04:21:16;10.90;99.90
45807;DHT22;31507;51.494;7.518;2023-05-15T04:23:42;11.00;99.90
45807;DHT22;31507;51.494;7.518;2023-05-15T04:26:08;11.00;99.90
45807;DHT22;31507;51.494;7.518;2023-05-15T04:28:34;11.10;99.90
45807;DHT22;31507;51.494;7.518;2023-05-15T04:31:00;11.20;99.90
45807;DHT22;31507;51.494;7.518;2023-05-15T04:33:26;11.20;99.90
45807;DHT22;31507;51.494;7.518;2023-05-15T04:35:51;11.30;99.90
45807;DHT22;31507;51.494;7.518;2023-05-15T04:38:17;11.30;99.90
45807;DHT22;31507;51.494;7.518;2023-05-15T04:40:43;11.40;99.90
45807;DHT22;31507;51.494;7.518;2023-05-15T04:43:09;11.40;99.90
45807;DHT22;31507;51.494;7.518;2023-05-15T04:45:35;11.50;99.90
45807;DHT22;31507;51.494;7.518;2023-05-15T04:48:01;11.50;99.90
45807;DHT22;31507;51.494;7.518;2023-05-15T04:50:27;11.60;99.90
45807;DHT22;31507;51.494;7.518;2023-05-15T04:52:52;11.70;99.90
45807;DHT22;31507;51.494;7.518;2023-05-15T04:55:18;11.70;99.90
45807;DHT22;31507;51.494;7.518;2023-05-15T04:57:45;11.80;99.90
45807;DHT22;31507;51.494;7.518;2023-05-15T05:00:12;11.80;99.90
45807;DHT22;31507;51.494;7.518;2023-05-15T05:02:39;11.90;99.90
45807;DHT22;31507;51.494;7.518;2023-05-15T05:05:05;12.00;99.90
45807;DHT22;31507;51.494;7.518;2023-05-15T05:07:32;12.10;99.90
45807;DHT22;31507;51.494;7.518;2023-05-15T05:09:58;12.10;99.90
45807;DHT22;31507;51.494;7.518;2023-05-15T05:12:24;12.20;99.90
45807;DHT22;31507;51.494;7.518;2023-05-15T05:14:49;12.20;99.90
45807;DHT22;31507;51.494;7.518;2023-05-15T05:17:15;12.30;99.90
45807;DHT22;31507;51.494;7.518;2023-05-15T05:19:41;12.30;99.90
45807;DHT22;31507;51.494;7.518;2023-05-15T05:22:07;12.40;99.90
45807;DHT22;31507;51.494;7.518;2023-05-15T05:24:33;12.40;99.90
45807;DHT22;31507;51.494;7.518;2023-05-15T05:27:02;12.40;99.90
45807;DHT22;31507;51.494;7.518;2023-05-15T05:29:31;12.50;99.90
45807;DHT22;31507;51.494;7.518;2023-05-15T05:31:57;12.50;99.90
45807;DHT22;31507;51.494;7.518;2023-05-15T05:34:23;12.40;99.90
45807;DHT22;31507;51.494;7.518;2023-05-15T05:36:49;12.40;99.90
45807;DHT22;31507;51.494;7.518;2023-05-15T05:39:15;12.50;99.90
45807;DHT22;31507;51.494;7.518;2023-05-15T05:41:41;12.60;99.90
45807;DHT22;31507;51.494;7.518;2023-05-15T05:44:07;12.60;99.90
45807;DHT22;31507;51.494;7.518;2023-05-15T05:46:33;12.60;99.90
45807;DHT22;31507;51.494;7.518;2023-05-15T05:48:59;12.70;99.90
45807;DHT22;31507;51.494;7.518;2023-05-15T05:51:24;12.70;99.90
45807;DHT22;31507;51.494;7.518;2023-05-15T05:53:50;12.80;99.90
45807;DHT22;31507;51.494;7.518;2023-05-15T05:56:16;12.90;99.90
45807;DHT22;31507;51.494;7.518;2023-05-15T05:58:41;12.90;99.90
45807;DHT22;31507;51.494;7.518;2023-05-15T06:01:07;12.90;99.90
45807;DHT22;31507;51.494;7.518;2023-05-15T06:03:33;13.00;99.90
45807;DHT22;31507;51.494;7.518;2023-05-15T06:05:59;13.00;99.90
45807;DHT22;31507;51.494;7.518;2023-05-15T06:08:25;13.00;99.90
45807;DHT22;31507;51.494;7.518;2023-05-15T06:10:51;12.90;99.90
45807;DHT22;31507;51.494;7.518;2023-05-15T06:13:16;12.90;99.90
45807;DHT22;31507;51.494;7.518;2023-05-15T06:15:42;12.90;99.90
45807;DHT22;31507;51.494;7.518;2023-05-15T06:18:09;13.00;99.90
45807;DHT22;31507;51.494;7.518;2023-05-15T06:20:34;13.00;99.90
45807;DHT22;31507;51.494;7.518;2023-05-15T06:23:00;13.20;99.90
45807;DHT22;31507;51.494;7.518;2023-05-15T06:25:26;13.20;99.90
45807;DHT22;31507;51.494;7.518;2023-05-15T06:27:51;13.20;99.90
45807;DHT22;31507;51.494;7.518;2023-05-15T06:30:17;13.20;99.90
45807;DHT22;31507;51.494;7.518;2023-05-15T06:32:42;13.10;99.90
45807;DHT22;31507;51.494;7.518;2023-05-15T06:35:09;13.10;99.90
45807;DHT22;31507;51.494;7.518;2023-05-15T06:37:35;12.90;99.90
45807;DHT22;31507;51.494;7.518;2023-05-15T06:40:01;12.90;99.90
45807;DHT22;31507;51.494;7.518;2023-05-15T06:42:27;12.90;99.90
45807;DHT22;31507;51.494;7.518;2023-05-15T06:44:52;13.10;99.90
45807;DHT22;31507;51.494;7.518;2023-05-15T06:47:18;13.00;99.90
45807;DHT22;31507;51.494;7.518;2023-05-15T06:49:44;13.10;99.90
45807;DHT22;31507;51.494;7.518;2023-05-15T06:52:09;13.40;99.90
45807;DHT22;31507;51.494;7.518;2023-05-15T06:54:35;13.60;99.90
45807;DHT22;31507;51.494;7.518;2023-05-15T06:57:01;13.80;99.90
45807;DHT22;31507;51.494;7.518;2023-05-15T06:59:26;13.80;99.90
45807;DHT22;31507;51.494;7.518;2023-05-15T07:01:52;13.90;99.90
45807;DHT22;31507;51.494;7.518;2023-05-15T07:04:18;13.80;99.90
45807;DHT22;31507;51.494;7.518;2023-05-15T07:06:43;13.70;99.90
45807;DHT22;31507;51.494;7.518;2023-05-15T07:09:09;13.70;99.90
45807;DHT22;31507;51.494;7.518;2023-05-15T07:11:35;13.90;99.90
45807;DHT22;31507;51.494;7.518;2023-05-15T07:14:04;14.20;99.90
45807;DHT22;31507;51.494;7.518;2023-05-15T07:16:30;14.50;99.90
45807;DHT22;31507;51.494;7.518;2023-05-15T07:18:56;14.70;99.90
45807;DHT22;31507;51.494;7.518;2023-05-15T07:21:21;14.80;99.90
45807;DHT22;31507;51.494;7.518;2023-05-15T07:23:47;14.90;99.90
45807;DHT22;31507;51.494;7.518;2023-05-15T07:26:13;15.10;99.90
45807;DHT22;31507;51.494;7.518;2023-05-15T07:28:39;15.40;99.90
45807;DHT22;31507;51.494;7.518;2023-05-15T07:31:05;15.40;99.90
45807;DHT22;31507;51.494;7.518;2023-05-15T07:33:31;15.20;99.90
45807;DHT22;31507;51.494;7.518;2023-05-15T07:35:57;15.20;99.90
45807;DHT22;31507;51.494;7.518;2023-05-15T07:38:23;15.30;99.90
45807;DHT22;31507;51.494;7.518;2023-05-15T07:40:48;15.30;99.90
45807;DHT22;31507;51.494;7.518;2023-05-15T07:43:14;15.30;99.90
45807;DHT22;31507;51.494;7.518;2023-05-15T07:45:40;15.10;99.90
45807;DHT22;31507;51.494;7.518;2023-05-15T07:48:19;14.90;99.90
45807;DHT22;31507;51.494;7.518;2023-05-15T07:50:46;15.00;99.90
45807;DHT22;31507;51.494;7.518;2023-05-15T07:53:14;14.90;99.90
45807;DHT22;31507;51.494;7.518;2023-05-15T07:55:43;15.10;99.90
45807;DHT22;31507;51.494;7.518;2023-05-15T07:58:09;15.20;99.90
45807;DHT22;31507;51.494;7.518;2023-05-15T08:00:35;15.20;99.90
45807;DHT22;31507;51.494;7.518;2023-05-15T08:03:01;15.40;99.90
45807;DHT22;31507;51.494;7.518;2023-05-15T08:05:27;15.60;99.90
45807;DHT22;31507;51.494;7.518;2023-05-15T08:07:54;15.60;99.90
45807;DHT22;31507;51.494;7.518;2023-05-15T08:10:20;15.70;99.90
45807;DHT22;31507;51.494;7.518;2023-05-15T08:12:46;15.80;99.90
45807;DHT22;31507;51.494;7.518;2023-05-15T08:15:13;15.90;99.90
45807;DHT22;31507;51.494;7.518;2023-05-15T08:17:39;15.90;99.90
45807;DHT22;31507;51.494;7.518;2023-05-15T08:20:06;15.70;99.90
45807;DHT22;31507;51.494;7.518;2023-05-15T08:22:32;15.80;99.90
45807;DHT22;31507;51.494;7.518;2023-05-15T08:24:58;15.80;99.90
45807;DHT22;31507;51.494;7.518;2023-05-15T08:27:24;15.80;99.90
45807;DHT22;31507;51.494;7.518;2023-05-15T08:29:50;16.10;99.90
45807;DHT22;31507;51.494;7.518;2023-05-15T08:32:17;16.30;99.90
45807;DHT22;31507;51.494;7.518;2023-05-15T08:34:43;16.10;99.90
45807;DHT22;31507;51.494;7.518;2023-05-15T08:37:08;16.00;99.90
45807;DHT22;31507;51.494;7.518;2023-05-15T08:39:34;15.80;99.90
45807;DHT22;31507;51.494;7.518;2023-05-15T08:44:32;15.50;99.90
45807;DHT22;31507;51.494;7.518;2023-05-15T08:46:58;15.50;99.90
45807;DHT22;31507;51.494;7.518;2023-05-15T08:49:46;15.50;99.90
45807;DHT22;31507;51.494;7.518;2023-05-15T08:52:15;16.20;99.90
45807;DHT22;31507;51.494;7.518;2023-05-15T08:54:41;16.50;99.90
45807;DHT22;31507;51.494;7.518;2023-05-15T08:57:08;16.80;99.90
45807;DHT22;31507;51.494;7.518;2023-05-15T08:59:34;16.40;99.90
45807;DHT22;31507;51.494;7.518;2023-05-15T09:02:00;16.40;99.90
45807;DHT22;31507;51.494;7.518;2023-05-15T09:04:26;16.70;99.90
45807;DHT22;31507;51.494;7.518;2023-05-15T09:06:52;17.30;99.90
45807;DHT22;31507;51.494;7.518;2023-05-15T09:09:19;17.70;99.90
45807;DHT22;31507;51.494;7.518;2023-05-15T09:11:47;17.80;99.90
45807;DHT22;31507;51.494;7.518;2023-05-15T09:14:13;17.70;99.90
45807;DHT22;31507;51.494;7.518;2023-05-15T09:16:38;17.60;99.90
45807;DHT22;31507;51.494;7.518;2023-05-15T09:19:05;17.50;99.90
45807;DHT22;31507;51.494;7.518;2023-05-15T09:21:31;18.00;99.90
45807;DHT22;31507;51.494;7.518;2023-05-15T09:26:47;18.50;99.90
45807;DHT22;31507;51.494;7.518;2023-05-15T09:29:17;18.80;99.90
45807;DHT22;31507;51.494;7.518;2023-05-15T09:31:45;19.00;99.90
45807;DHT22;31507;51.494;7.518;2023-05-15T09:34:11;19.00;99.90
45807;DHT22;31507;51.494;7.518;2023-05-15T09:36:41;18.70;99.90
45807;DHT22;31507;51.494;7.518;2023-05-15T09:39:08;18.60;99.90
45807;DHT22;31507;51.494;7.518;2023-05-15T09:41:34;18.80;99.90
45807;DHT22;31507;51.494;7.518;2023-05-15T09:43:59;18.90;99.90
45807;DHT22;31507;51.494;7.518;2023-05-15T09:46:25;19.30;99.90
45807;DHT22;31507;51.494;7.518;2023-05-15T09:48:54;19.40;99.90
45807;DHT22;31507;51.494;7.518;2023-05-15T09:51:20;19.90;99.90
45807;DHT22;31507;51.494;7.518;2023-05-15T09:53:48;19.70;99.90
45807;DHT22;31507;51.494;7.518;2023-05-15T09:56:16;20.10;99.90
45807;DHT22;31507;51.494;7.518;2023-05-15T09:58:55;20.10;99.90
45807;DHT22;31507;51.494;7.518;2023-05-15T10:01:22;20.30;99.30
45807;DHT22;31507;51.494;7.518;2023-05-15T10:04:02;19.90;99.90
45807;DHT22;31507;51.494;7.518;2023-05-15T10:06:38;19.90;99.90
45807;DHT22;31507;51.494;7.518;2023-05-15T10:09:04;20.20;99.60
45807;DHT22;31507;51.494;7.518;2023-05-15T10:11:33;20.20;99.90
45807;DHT22;31507;51.494;7.518;2023-05-15T10:14:00;20.50;99.40
45807;DHT22;31507;51.494;7.518;2023-05-15T10:16:28;20.50;99.40
45807;DHT22;31507;51.494;7.518;2023-05-15T10:18:56;21.00;96.90
45807;DHT22;31507;51.494;7.518;2023-05-15T10:21:22;21.10;97.40
45807;DHT22;31507;51.494;7.518;2023-05-15T10:23:49;20.90;96.20
45807;DHT22;31507;51.494;7.518;2023-05-15T10:26:22;20.20;97.40
45807;DHT22;31507;51.494;7.518;2023-05-15T10:28:49;19.80;97.90
45807;DHT22;31507;51.494;7.518;2023-05-15T10:31:17;19.80;99.00
45807;DHT22;31507;51.494;7.518;2023-05-15T10:33:43;20.20;98.60
45807;DHT22;31507;51.494;7.518;2023-05-15T10:36:12;20.10;97.20
45807;DHT22;31507;51.494;7.518;2023-05-15T10:38:42;20.00;97.30
45807;DHT22;31507;51.494;7.518;2023-05-15T10:41:10;20.50;97.60
45807;DHT22;31507;51.494;7.518;2023-05-15T10:43:36;20.80;95.40
45807;DHT22;31507;51.494;7.518;2023-05-15T10:46:03;21.20;95.40
45807;DHT22;31507;51.494;7.518;2023-05-15T10:48:29;21.20;91.90
45807;DHT22;31507;51.494;7.518;2023-05-15T10:50:59;20.90;95.70
45807;DHT22;31507;51.494;7.518;2023-05-15T10:53:26;21.40;95.00
45807;DHT22;31507;51.494;7.518;2023-05-15T10:55:52;21.70;93.30
45807;DHT22;31507;51.494;7.518;2023-05-15T10:58:22;21.60;93.50
45807;DHT22;31507;51.494;7.518;2023-05-15T11:00:48;21.50;93.80
45807;DHT22;31507;51.494;7.518;2023-05-15T11:03:14;21.70;93.30
45807;DHT22;31507;51.494;7.518;2023-05-15T11:06:33;21.80;91.70
45807;DHT22;31507;51.494;7.518;2023-05-15T11:08:51;22.10;95.90
45807;DHT22;31507;51.494;7.518;2023-05-15T11:12:08;22.20;92.00
45807;DHT22;31507;51.494;7.518;2023-05-15T11:14:37;22.00;91.70
45807;DHT22;31507;51.494;7.518;2023-05-15T11:17:05;21.90;93.00
45807;DHT22;31507;51.494;7.518;2023-05-15T11:20:05;22.10;92.20
45807;DHT22;31507;51.494;7.518;2023-05-15T11:22:34;21.70;91.00
45807;DHT22;31507;51.494;7.518;2023-05-15T11:25:08;20.90;93.30
45807;DHT22;31507;51.494;7.518;2023-05-15T11:27:38;20.60;94.40
45807;DHT22;31507;51.494;7.518;2023-05-15T11:32:51;20.30;94.80
45807;DHT22;31507;51.494;7.518;2023-05-15T11:43:31;21.50;89.30
45807;DHT22;31507;51.494;7.518;2023-05-15T11:48:40;22.00;85.30
45807;DHT22;31507;51.494;7.518;2023-05-15T11:53:47;22.60;77.50
45807;DHT22;31507;51.494;7.518;2023-05-15T11:56:24;21.90;79.50
45807;DHT22;31507;51.494;7.518;2023-05-15T11:58:59;21.40;79.40
45807;DHT22;31507;51.494;7.518;2023-05-15T12:01:25;21.70;83.70
45807;DHT22;31507;51.494;7.518;2023-05-15T12:03:52;21.90;81.00
45807;DHT22;31507;51.494;7.518;2023-05-15T12:06:19;21.40;82.10
45807;DHT22;31507;51.494;7.518;2023-05-15T12:08:51;21.10;83.10
45807;DHT22;31507;51.494;7.518;2023-05-15T12:11:23;21.50;83.30
45807;DHT22;31507;51.494;7.518;2023-05-15T12:13:53;21.40;84.10
45807;DHT22;31507;51.494;7.518;2023-05-15T12:16:26;22.00;86.00
45807;DHT22;31507;51.494;7.518;2023-05-15T12:18:52;22.30;75.50
45807;DHT22;31507;51.494;7.518;2023-05-15T12:21:17;22.20;75.80
45807;DHT22;31507;51.494;7.518;2023-05-15T12:23:53;22.10;78.40
45807;DHT22;31507;51.494;7.518;2023-05-15T12:26:20;22.10;75.00
45807;DHT22;31507;51.494;7.518;2023-05-15T12:28:48;22.80;75.60
45807;DHT22;31507;51.494;7.518;2023-05-15T12:31:14;22.40;72.40
45807;DHT22;31507;51.494;7.518;2023-05-15T12:33:42;22.20;73.50
45807;DHT22;31507;51.494;7.518;2023-05-15T12:36:08;22.50;71.20
45807;DHT22;31507;51.494;7.518;2023-05-15T12:38:35;22.40;70.30
45807;DHT22;31507;51.494;7.518;2023-05-15T12:41:01;21.60;68.60
45807;DHT22;31507;51.494;7.518;2023-05-15T12:43:26;21.20;70.90
45807;DHT22;31507;51.494;7.518;2023-05-15T12:45:56;21.30;73.20
45807;DHT22;31507;51.494;7.518;2023-05-15T12:48:22;21.40;70.00
45807;DHT22;31507;51.494;7.518;2023-05-15T12:50:47;20.80;69.60
45807;DHT22;31507;51.494;7.518;2023-05-15T12:53:15;20.50;72.70
45807;DHT22;31507;51.494;7.518;2023-05-15T12:55:42;20.80;72.90
45807;DHT22;31507;51.494;7.518;2023-05-15T12:58:10;21.00;69.90
45807;DHT22;31507;51.494;7.518;2023-05-15T13:00:39;20.90;70.50
45807;DHT22;31507;51.494;7.518;2023-05-15T13:03:08;20.50;69.30
45807;DHT22;31507;51.494;7.518;2023-05-15T13:05:35;20.00;71.60
45807;DHT22;31507;51.494;7.518;2023-05-15T13:08:03;20.10;72.50
45807;DHT22;31507;51.494;7.518;2023-05-15T13:10:31;20.60;73.00
45807;DHT22;31507;51.494;7.518;2023-05-15T13:12:57;20.60;73.80
45807;DHT22;31507;51.494;7.518;2023-05-15T13:15:27;20.70;73.60
45807;DHT22;31507;51.494;7.518;2023-05-15T13:18:13;21.00;73.50
45807;DHT22;31507;51.494;7.518;2023-05-15T13:20:47;21.60;70.80
45807;DHT22;31507;51.494;7.518;2023-05-15T13:23:17;22.10;67.40
45807;DHT22;31507;51.494;7.518;2023-05-15T13:25:43;22.30;65.70
45807;DHT22;31507;51.494;7.518;2023-05-15T13:28:09;22.50;62.30
45807;DHT22;31507;51.494;7.518;2023-05-15T13:30:35;22.90;64.30
45807;DHT22;31507;51.494;7.518;2023-05-15T13:33:03;23.30;62.10
45807;DHT22;31507;51.494;7.518;2023-05-15T13:35:29;23.20;58.80
45807;DHT22;31507;51.494;7.518;2023-05-15T13:37:55;23.00;60.50
45807;DHT22;31507;51.494;7.518;2023-05-15T13:40:21;22.30;61.50
45807;DHT22;31507;51.494;7.518;2023-05-15T13:42:47;21.80;60.70
45807;DHT22;31507;51.494;7.518;2023-05-15T13:45:14;21.50;61.60
45807;DHT22;31507;51.494;7.518;2023-05-15T13:47:41;21.80;63.60
45807;DHT22;31507;51.494;7.518;2023-05-15T13:50:10;22.40;60.40
45807;DHT22;31507;51.494;7.518;2023-05-15T13:52:36;22.80;59.70
45807;DHT22;31507;51.494;7.518;2023-05-15T13:55:08;23.00;60.50
45807;DHT22;31507;51.494;7.518;2023-05-15T13:57:37;23.50;59.60
45807;DHT22;31507;51.494;7.518;2023-05-15T14:00:11;23.20;59.30
45807;DHT22;31507;51.494;7.518;2023-05-15T14:02:41;22.90;57.10
45807;DHT22;31507;51.494;7.518;2023-05-15T14:05:08;22.30;57.90
45807;DHT22;31507;51.494;7.518;2023-05-15T14:07:34;22.20;59.70
45807;DHT22;31507;51.494;7.518;2023-05-15T14:09:59;22.60;59.70
45807;DHT22;31507;51.494;7.518;2023-05-15T14:12:25;23.00;59.30
45807;DHT22;31507;51.494;7.518;2023-05-15T14:14:51;23.30;58.80
45807;DHT22;31507;51.494;7.518;2023-05-15T14:17:16;23.00;57.70
45807;DHT22;31507;51.494;7.518;2023-05-15T14:19:43;22.20;59.00
45807;DHT22;31507;51.494;7.518;2023-05-15T14:22:11;21.60;59.70
45807;DHT22;31507;51.494;7.518;2023-05-15T14:24:36;21.00;61.90
45807;DHT22;31507;51.494;7.518;2023-05-15T14:27:04;21.20;63.90
45807;DHT22;31507;51.494;7.518;2023-05-15T14:29:33;21.60;62.00
45807;DHT22;31507;51.494;7.518;2023-05-15T14:31:58;21.90;62.30
45807;DHT22;31507;51.494;7.518;2023-05-15T14:34:24;22.10;60.70
45807;DHT22;31507;51.494;7.518;2023-05-15T14:36:50;21.90;62.10
45807;DHT22;31507;51.494;7.518;2023-05-15T14:39:16;21.80;62.60
45807;DHT22;31507;51.494;7.518;2023-05-15T14:41:43;22.20;63.00
45807;DHT22;31507;51.494;7.518;2023-05-15T14:44:09;22.60;61.90
45807;DHT22;31507;51.494;7.518;2023-05-15T14:46:35;22.60;62.90
45807;DHT22;31507;51.494;7.518;2023-05-15T14:49:04;22.20;63.60
45807;DHT22;31507;51.494;7.518;2023-05-15T14:51:30;21.80;63.70
45807;DHT22;31507;51.494;7.518;2023-05-15T14:53:56;21.70;65.50
45807;DHT22;31507;51.494;7.518;2023-05-15T14:56:49;21.40;65.00
45807;DHT22;31507;51.494;7.518;2023-05-15T14:59:17;21.20;63.40
45807;DHT22;31507;51.494;7.518;2023-05-15T15:01:43;21.60;63.70
45807;DHT22;31507;51.494;7.518;2023-05-15T15:04:08;21.60;64.80
45807;DHT22;31507;51.494;7.518;2023-05-15T15:06:34;21.20;64.30
45807;DHT22;31507;51.494;7.518;2023-05-15T15:09:00;20.50;66.90
45807;DHT22;31507;51.494;7.518;2023-05-15T15:11:26;20.00;71.50
45807;DHT22;31507;51.494;7.518;2023-05-15T15:13:51;19.60;77.60
45807;DHT22;31507;51.494;7.518;2023-05-15T15:16:17;19.80;78.00
45807;DHT22;31507;51.494;7.518;2023-05-15T15:18:42;20.10;79.30
45807;DHT22;31507;51.494;7.518;2023-05-15T15:21:10;20.50;77.80
45807;DHT22;31507;51.494;7.518;2023-05-15T15:23:36;20.50;77.30
45807;DHT22;31507;51.494;7.518;2023-05-15T15:26:02;20.50;77.50
45807;DHT22;31507;51.494;7.518;2023-05-15T15:28:28;20.20;77.70
45807;DHT22;31507;51.494;7.518;2023-05-15T15:31:00;20.10;79.40
45807;DHT22;31507;51.494;7.518;2023-05-15T15:33:26;19.90;77.60
45807;DHT22;31507;51.494;7.518;2023-05-15T15:35:51;19.50;76.70
45807;DHT22;31507;51.494;7.518;2023-05-15T15:38:17;19.10;77.60
45807;DHT22;31507;51.494;7.518;2023-05-15T15:40:43;19.20;78.40
45807;DHT22;31507;51.494;7.518;2023-05-15T15:43:08;19.40;76.20
45807;DHT22;31507;51.494;7.518;2023-05-15T15:45:34;19.70;75.70
45807;DHT22;31507;51.494;7.518;2023-05-15T15:48:00;19.80;72.60
45807;DHT22;31507;51.494;7.518;2023-05-15T15:50:26;20.10;71.60
45807;DHT22;31507;51.494;7.518;2023-05-15T15:52:51;20.50;71.10
45807;DHT22;31507;51.494;7.518;2023-05-15T15:55:17;20.60;68.00
45807;DHT22;31507;51.494;7.518;2023-05-15T15:57:43;20.40;68.00
45807;DHT22;31507;51.494;7.518;2023-05-15T16:00:08;20.00;70.00
45807;DHT22;31507;51.494;7.518;2023-05-15T16:02:35;19.70;73.20
45807;DHT22;31507;51.494;7.518;2023-05-15T16:05:01;19.40;77.60
45807;DHT22;31507;51.494;7.518;2023-05-15T16:07:26;19.20;81.00
45807;DHT22;31507;51.494;7.518;2023-05-15T16:09:52;19.00;84.70